Terminal Aerodrome Forecast
Issued by NWS Chicago, IL

Home | Current Version | Previous Version | Text Only | Print | Product List | Glossary Off
Versions: 1 2 3 4 5 6 7 8 9 10 11 12 13 14 15 16 17 18 19 20 21 22 23 24 25 26 27 28 29 30 31

546
FTUS43 KLOT 170533
TAFRFD
TAF
KRFD 170533Z 1706/1806 04004KT 1 1/2SM -DZ BR VCSH OVC003
      TEMPO 1708/1712 1/2SM FG
     FM171200 28005KT 1SM -DZ BR OVC003
     FM171900 30007KT 2SM BR OVC003
     FM180300 30006KT 4SM -DZ BR OVC005=

USA.gov is the U.S. government's official web portal to all federal, state and local government web resources and services.